| time (UTC) | temp F | wind direction | speed knots | gust knots | rain 1hr in | rain 24hr in | rain mn in | humidity % | barometer mb |
| 20260505094055 | 42 | 338 | 0.9 | 14.8 | 0.00 | 0.00 | 0.00 | 90 | 1011.7 |
| 20260505094009 | 0 | 302 | 0.9 | 15.6 | 0.00 | 0.00 | 0.00 | 1011.9 | |
| 20260505093548 | 42 | 313 | 5.2 | 14.8 | 0.00 | 0.00 | 0.00 | 89 | 1011.8 |
| 20260505093511 | 0 | 340 | 4.3 | 15.6 | 0.00 | 0.00 | 0.00 | 1011.9 | |
| 20260505093100 | 42 | 307 | 5.2 | 13.0 | 0.00 | 0.00 | 0.00 | 89 | 1011.8 |
| 20260505093006 | 0 | 321 | 4.3 | 13.0 | 0.00 | 0.00 | 0.00 | 1011.9 | |
| 20260505092553 | 43 | 301 | 3.5 | 13.0 | 0.00 | 0.00 | 0.00 | 89 | 1011.7 |
| 20260505092510 | 0 | 5 | 3.5 | 13.0 | 0.00 | 0.00 | 0.00 | 1011.9 | |
| 20260505092046 | 43 | 295 | 3.5 | 13.0 | 0.00 | 0.00 | 0.00 | 89 | 1011.8 |
| 20260505092007 | 0 | 328 | 2.6 | 13.0 | 0.00 | 0.00 | 0.00 | 1012.0 | |
| 20260505091558 | 43 | 319 | 2.6 | 10.4 | 0.00 | 0.00 | 0.00 | 89 | 1011.8 |
| 20260505091506 | 0 | 327 | 1.7 | 10.4 | 0.00 | 0.00 | 0.00 | 1011.9 | |
| 20260505091121 | 43 | 346 | 2.6 | 13.9 | 0.00 | 0.00 | 0.00 | 89 | 1011.7 |
| 20260505091007 | 0 | 325 | 1.7 | 13.9 | 0.00 | 0.00 | 0.00 | 1011.9 | |
| 20260505090552 | 43 | 1 | 5.2 | 13.9 | 0.00 | 0.00 | 0.00 | 89 | 1011.5 |
| 20260505090504 | 0 | 309 | 4.3 | 13.9 | 0.00 | 0.00 | 0.00 | 1011.7 | |
| 20260505090104 | 43 | 342 | 5.2 | 12.2 | 0.00 | 0.00 | 0.00 | 88 | 1011.6 |
| 20260505090037 | 0 | 330 | 5.2 | 11.3 | 0.00 | 0.00 | 0.00 | 1011.7 | |
| 20260505085555 | 44 | 312 | 0.9 | 12.2 | 0.00 | 0.00 | 0.00 | 89 | 1011.6 |
| 20260505085507 | 0 | 327 | 0.9 | 11.3 | 0.00 | 0.00 | 0.00 | 1011.8 | |
| 20260505085048 | 44 | 348 | 3.5 | 12.2 | 0.00 | 0.00 | 0.00 | 88 | 1011.6 |
| 20260505085004 | 0 | 293 | 2.6 | 11.3 | 0.00 | 0.00 | 0.00 | 1011.8 | |
| 20260505084543 | 45 | 311 | 3.5 | 9.6 | 0.00 | 0.00 | 0.00 | 88 | 1011.6 |
| 20260505084522 | 0 | 346 | 2.6 | 12.2 | 0.00 | 0.00 | 0.00 | 1011.6 | |
| 20260505084111 | 45 | 319 | 1.7 | 11.3 | 0.00 | 0.00 | 0.00 | 88 | 1011.5 |
| 20260505084012 | 0 | 338 | 1.7 | 12.2 | 0.00 | 0.00 | 0.00 | 1011.7 | |
| 20260505083618 | 46 | 288 | 4.3 | 12.2 | 0.00 | 0.00 | 0.00 | 88 | 1011.6 |
| 20260505083505 | 0 | 336 | 3.5 | 13.0 | 0.00 | 0.00 | 0.00 | 1011.7 | |
| 20260505083050 | 47 | 324 | 6.1 | 12.2 | 0.00 | 0.00 | 0.00 | 88 | 1011.4 |
| 20260505083018 | 0 | 350 | 6.1 | 13.0 | 0.00 | 0.00 | 0.00 | 1011.7 | |
| 20260505082602 | 47 | 7 | 0.9 | 4.3 | 0.00 | 0.00 | 0.00 | 89 | 1011.6 |
| 20260505082504 | 0 | 350 | 0.0 | 3.5 | 0.00 | 0.00 | 0.00 | 1011.7 | |
| 20260505082054 | 47 | 3 | 0.0 | 0.9 | 0.00 | 0.00 | 0.00 | 89 | 1011.5 |
| 20260505082007 | 0 | 3 | 0.0 | 0.9 | 0.00 | 0.00 | 0.00 | 1011.6 | |
| 20260505081546 | 47 | 169 | 0.0 | 0.0 | 0.00 | 0.00 | 0.00 | 89 | 1011.6 |
| 20260505081524 | 0 | 169 | 0.0 | 0.0 | 0.00 | 0.00 | 0.00 | 1011.7 | |
| 20260505081058 | 47 | 169 | 0.0 | 0.0 | 0.00 | 0.00 | 0.00 | 89 | 1011.4 |
| 20260505081005 | 0 | 169 | 0.0 | 0.0 | 0.00 | 0.00 | 0.00 | 1011.7 | |
| 20260505080551 | 47 | 169 | 0.0 | 0.0 | 0.00 | 0.00 | 0.00 | 89 | 1011.5 |
| 20260505080508 | 0 | 169 | 0.0 | 0.0 | 0.00 | 0.00 | 0.00 | 1011.8 | |
| 20260505080033 | 0 | 169 | 0.0 | 0.0 | 0.00 | 0.00 | 0.00 | 1011.6 | |
| 20260505075554 | 47 | 169 | 0.0 | 0.0 | 0.00 | 0.00 | 0.00 | 89 | 1011.2 |
| 20260505075506 | 0 | 169 | 0.0 | 0.0 | 0.00 | 0.00 | 0.00 | 1011.4 | |
| 20260505075046 | 47 | 169 | 0.0 | 0.0 | 0.00 | 0.00 | 0.00 | 89 | 1011.3 |
| 20260505075007 | 0 | 169 | 0.0 | 0.0 | 0.00 | 0.00 | 0.00 | 1011.6 | |
| 20260505074558 | 47 | 169 | 0.0 | 0.0 | 0.00 | 0.00 | 0.00 | 89 | 1011.3 |
| 20260505074511 | 0 | 169 | 0.0 | 0.0 | 0.00 | 0.00 | 0.00 | 1011.5 | |
| 20260505074051 | 47 | 169 | 0.0 | 0.0 | 0.00 | 0.00 | 0.00 | 89 | 1011.3 |
| 20260505074007 | 0 | 169 | 0.0 | 0.0 | 0.00 | 0.00 | 0.00 | 1011.6 | |
| 20260505073544 | 47 | 169 | 0.0 | 0.0 | 0.00 | 0.00 | 0.00 | 89 | 1011.4 |
| 20260505073507 | 0 | 169 | 0.0 | 0.0 | 0.00 | 0.00 | 0.00 | 1011.6 | |
| 20260505073116 | 47 | 169 | 0.0 | 0.0 | 0.00 | 0.00 | 0.00 | 89 | 1011.4 |
| 20260505073014 | 0 | 169 | 0.0 | 0.0 | 0.00 | 0.00 | 0.00 | 1011.7 | |
| 20260505072607 | 47 | 169 | 0.0 | 0.0 | 0.00 | 0.00 | 0.00 | 89 | 1011.3 |
| 20260505072507 | 0 | 169 | 0.0 | 0.0 | 0.00 | 0.00 | 0.00 | 1011.5 | |
| 20260505072059 | 47 | 169 | 0.0 | 0.0 | 0.00 | 0.00 | 0.00 | 89 | 1011.2 |
| 20260505072008 | 0 | 169 | 0.0 | 0.0 | 0.00 | 0.00 | 0.00 | 1011.5 | |
| 20260505071551 | 47 | 169 | 0.0 | 0.0 | 0.00 | 0.00 | 0.00 | 89 | 1011.4 |
| 20260505071516 | 0 | 169 | 0.0 | 0.0 | 0.00 | 0.00 | 0.00 | 1011.6 | |
| 20260505071042 | 47 | 169 | 0.0 | 0.0 | 0.00 | 0.00 | 0.00 | 89 | 1011.4 |
| 20260505071010 | 0 | 169 | 0.0 | 0.0 | 0.00 | 0.00 | 0.00 | 1011.6 | |
| 20260505070557 | 47 | 168 | 0.0 | 0.0 | 0.00 | 0.00 | 0.00 | 89 | 1011.4 |
| 20260505070508 | 0 | 168 | 0.0 | 0.0 | 0.00 | 0.00 | 0.00 | 1011.7 | |
| 20260505070106 | 47 | 168 | 0.0 | 0.0 | 0.00 | 0.00 | 0.00 | 89 | 1011.6 |
| 20260505070022 | 0 | 168 | 0.0 | 0.0 | 0.00 | 0.00 | 0.00 | 1011.8 | |
| 20260505065559 | 47 | 167 | 0.0 | 0.0 | 0.00 | 0.00 | 0.00 | 88 | 1011.6 |
| 20260505065507 | 0 | 167 | 0.0 | 0.0 | 0.00 | 0.00 | 0.00 | 1011.8 | |
| 20260505065050 | 47 | 167 | 0.0 | 0.0 | 0.00 | 0.00 | 0.00 | 88 | 1011.4 |
| 20260505065006 | 0 | 167 | 0.0 | 0.0 | 0.00 | 0.00 | 0.00 | 1011.7 | |
| 20260505064544 | 47 | 167 | 0.0 | 0.0 | 0.00 | 0.00 | 0.00 | 88 | 1011.6 |
| 20260505064516 | 0 | 167 | 0.0 | 0.0 | 0.00 | 0.00 | 0.00 | 1011.8 | |
| 20260505064057 | 47 | 167 | 0.0 | 0.0 | 0.00 | 0.00 | 0.00 | 88 | 1011.6 |
| 20260505064009 | 0 | 167 | 0.0 | 0.0 | 0.00 | 0.00 | 0.00 | 1011.8 | |
| 20260505063550 | 47 | 167 | 0.0 | 0.9 | 0.00 | 0.00 | 0.00 | 88 | 1011.6 |
| 20260505063515 | 0 | 167 | 0.0 | 3.5 | 0.00 | 0.00 | 0.00 | 1011.7 | |
| 20260505063103 | 47 | 167 | 0.0 | 3.5 | 0.00 | 0.00 | 0.00 | 88 | 1011.6 |
| 20260505063016 | 0 | 167 | 0.0 | 3.5 | 0.00 | 0.00 | 0.00 | 1011.7 | |
| 20260505062554 | 46 | 234 | 0.0 | 0.9 | 0.00 | 0.00 | 0.00 | 88 | 1011.6 |
| 20260505062507 | 0 | 234 | 0.0 | 0.9 | 0.00 | 0.00 | 0.00 | 1011.7 | |
| 20260505062107 | 46 | 237 | 0.0 | 0.0 | 0.00 | 0.00 | 0.00 | 88 | 1011.6 |
| 20260505062012 | 0 | 237 | 0.0 | 0.0 | 0.00 | 0.00 | 0.00 | 1011.8 | |
| 20260505061600 | 46 | 238 | 0.0 | 0.0 | 0.00 | 0.00 | 0.00 | 88 | 1011.5 |
| 20260505061520 | 0 | 238 | 0.0 | 0.0 | 0.00 | 0.00 | 0.00 | 1011.7 | |
| 20260505061121 | 46 | 238 | 0.0 | 0.0 | 0.00 | 0.00 | 0.00 | 87 | 1011.5 |
| 20260505061005 | 0 | 238 | 0.0 | 0.0 | 0.00 | 0.00 | 0.00 | 1011.8 | |
| 20260505060552 | 46 | 238 | 0.0 | 0.0 | 0.00 | 0.00 | 0.00 | 87 | 1011.6 |
| 20260505060510 | 0 | 238 | 0.0 | 0.0 | 0.00 | 0.00 | 0.00 | 1011.9 | |
| 20260505060044 | 46 | 238 | 0.0 | 0.0 | 0.00 | 0.00 | 0.00 | 87 | 1011.6 |
| 20260505060024 | 0 | 238 | 0.0 | 0.0 | 0.00 | 0.00 | 0.00 | 1011.8 | |
| 20260505055558 | 46 | 238 | 0.0 | 0.0 | 0.00 | 0.00 | 0.00 | 87 | 1011.6 |
| 20260505055511 | 0 | 238 | 0.0 | 0.0 | 0.00 | 0.00 | 0.00 | 1011.8 | |
| 20260505055110 | 47 | 238 | 0.0 | 0.0 | 0.00 | 0.00 | 0.00 | 87 | 1011.6 |
| 20260505055013 | 0 | 238 | 0.0 | 0.0 | 0.00 | 0.00 | 0.00 | 1011.8 | |
| 20260505054630 | 47 | 238 | 0.0 | 0.0 | 0.00 | 0.00 | 0.00 | 87 | 1011.7 |
| 20260505054511 | 0 | 238 | 0.0 | 0.0 | 0.00 | 0.00 | 0.00 | 1011.9 | |
| 20260505054045 | 47 | 238 | 0.0 | 0.0 | 0.00 | 0.00 | 0.00 | 87 | 1011.7 |
| 20260505054010 | 0 | 238 | 0.0 | 0.0 | 0.00 | 0.00 | 0.00 | 1011.8 | |
| 20260505053558 | 47 | 238 | 0.0 | 0.0 | 0.00 | 0.00 | 0.00 | 87 | 1011.4 |
| 20260505053511 | 0 | 238 | 0.0 | 0.0 | 0.00 | 0.00 | 0.00 | 1011.6 | |
| 20260505053050 | 47 | 238 | 0.0 | 0.0 | 0.00 | 0.00 | 0.00 | 87 | 1011.4 |
| 20260505053016 | 0 | 238 | 0.0 | 0.0 | 0.00 | 0.00 | 0.00 | 1011.6 | |
| 20260505052544 | 47 | 238 | 0.0 | 0.0 | 0.00 | 0.00 | 0.00 | 87 | 1011.4 |
| 20260505052515 | 0 | 238 | 0.0 | 0.0 | 0.00 | 0.00 | 0.00 | 1011.6 | |
| 20260505052057 | 47 | 238 | 0.0 | 0.0 | 0.00 | 0.00 | 0.00 | 87 | 1011.4 |
| 20260505052006 | 0 | 238 | 0.0 | 0.0 | 0.00 | 0.00 | 0.00 | 1011.6 | |
| 20260505051548 | 47 | 238 | 0.0 | 0.0 | 0.00 | 0.00 | 0.00 | 87 | 1011.5 |
| 20260505051521 | 0 | 238 | 0.0 | 0.0 | 0.00 | 0.00 | 0.00 | 1011.7 | |
| 20260505051058 | 47 | 238 | 0.0 | 0.0 | 0.00 | 0.00 | 0.00 | 87 | 1011.7 |
| 20260505051006 | 0 | 238 | 0.0 | 0.0 | 0.00 | 0.00 | 0.00 | 1011.9 | |
| 20260505050552 | 47 | 238 | 0.0 | 0.0 | 0.00 | 0.00 | 0.00 | 86 | 1011.8 |
| 20260505050509 | 0 | 238 | 0.0 | 0.0 | 0.00 | 0.00 | 0.00 | 1011.9 | |
| 20260505041558 | 48 | 238 | 0.0 | 0.0 | 0.00 | 0.00 | 0.00 | 84 | 1012.0 |
| 20260505041531 | 0 | 238 | 0.0 | 0.0 | 0.00 | 0.00 | 0.00 | 1012.2 | |
| 20260505041051 | 48 | 238 | 0.0 | 0.0 | 0.00 | 0.00 | 0.00 | 84 | 1012.3 |
| 20260505041009 | 0 | 238 | 0.0 | 0.0 | 0.00 | 0.00 | 0.00 | 1012.5 | |
| 20260505040544 | 48 | 238 | 0.0 | 1.7 | 0.00 | 0.00 | 0.00 | 84 | 1012.3 |
| 20260505040512 | 0 | 238 | 0.0 | 1.7 | 0.00 | 0.00 | 0.00 | 1012.4 | |
| 20260505040057 | 48 | 238 | 0.0 | 1.7 | 0.00 | 0.00 | 0.00 | 83 | 1012.2 |
| 20260505040017 | 0 | 238 | 0.0 | 1.7 | 0.00 | 0.00 | 0.00 | 1012.2 | |
| 20260505035551 | 48 | 234 | 0.0 | 0.9 | 0.00 | 0.00 | 0.00 | 83 | 1012.1 |
| 20260505035507 | 0 | 232 | 0.0 | 0.9 | 0.00 | 0.00 | 0.00 | 1012.2 | |
| 20260505035044 | 48 | 238 | 0.0 | 0.0 | 0.00 | 0.00 | 0.00 | 82 | 1012.1 |
| 20260505035007 | 0 | 238 | 0.0 | 0.0 | 0.00 | 0.00 | 0.00 | 1012.2 | |
| 20260505034553 | 49 | 238 | 0.0 | 0.0 | 0.00 | 0.00 | 0.00 | 82 | 1012.1 |
| 20260505034514 | 0 | 238 | 0.0 | 0.0 | 0.00 | 0.00 | 0.00 | 1012.2 | |
| 20260505034045 | 49 | 238 | 0.0 | 0.0 | 0.00 | 0.00 | 0.00 | 81 | 1012.2 |
| 20260505034010 | 0 | 238 | 0.0 | 2.6 | 0.00 | 0.00 | 0.00 | 1012.3 | |
| 20260505033558 | 49 | 234 | 0.0 | 5.2 | 0.00 | 0.00 | 0.00 | 80 | 1012.2 |
| 20260505033508 | 0 | 261 | 0.0 | 6.1 | 0.00 | 0.00 | 0.00 | 1012.3 | |
| 20260505033051 | 49 | 284 | 1.7 | 6.1 | 0.00 | 0.00 | 0.00 | 80 | 1012.5 |
| 20260505033015 | 0 | 275 | 0.9 | 6.1 | 0.00 | 0.00 | 0.00 | 1012.5 | |
| 20260505032544 | 49 | 286 | 1.7 | 7.0 | 0.00 | 0.00 | 0.00 | 79 | 1012.3 |
| 20260505032508 | 0 | 286 | 0.9 | 7.8 | 0.00 | 0.00 | 0.00 | 1012.3 | |
| 20260505032115 | 50 | 275 | 0.9 | 7.0 | 0.00 | 0.00 | 0.00 | 78 | 1012.1 |
| 20260505032008 | 0 | 302 | 0.9 | 8.7 | 0.00 | 0.00 | 0.00 | 1012.2 | |
| 20260505031547 | 50 | 271 | 1.7 | 8.7 | 0.00 | 0.00 | 0.00 | 77 | 1012.0 |
| 20260505031519 | 0 | 305 | 0.9 | 9.6 | 0.00 | 0.00 | 0.00 | 1012.0 | |
| 20260505031119 | 51 | 283 | 0.9 | 9.6 | 0.00 | 0.00 | 0.00 | 75 | 1011.8 |
| 20260505031010 | 0 | 280 | 0.0 | 10.4 | 0.00 | 0.00 | 0.00 | 1011.9 | |
| 20260505030551 | 51 | 317 | 3.5 | 9.6 | 0.00 | 0.00 | 0.00 | 73 | 1011.8 |
| 20260505030509 | 0 | 326 | 3.5 | 10.4 | 0.00 | 0.00 | 0.00 | 1011.9 | |
| 20260505030045 | 52 | 261 | 1.7 | 7.0 | 0.00 | 0.00 | 0.00 | 71 | 1011.6 |
| 20260505030020 | 0 | 256 | 1.7 | 7.8 | 0.00 | 0.00 | 0.00 | 1011.7 | |
| 20260505025557 | 52 | 256 | 0.9 | 4.3 | 0.00 | 0.00 | 0.00 | 69 | 1011.4 |
| 20260505025507 | 0 | 241 | 0.0 | 4.3 | 0.00 | 0.00 | 0.00 | 1011.6 | |
| 20260505025051 | 52 | 281 | 0.9 | 6.1 | 0.00 | 0.00 | 0.00 | 68 | 1011.2 |
| 20260505025007 | 0 | 280 | 0.0 | 5.2 | 0.00 | 0.00 | 0.00 | 1011.4 | |
| 20260505024546 | 52 | 296 | 0.0 | 6.1 | 0.00 | 0.00 | 0.00 | 68 | 1011.1 |
| 20260505024518 | 0 | 288 | 0.0 | 8.7 | 0.00 | 0.00 | 0.00 | 1011.2 | |
| 20260505024058 | 52 | 337 | 0.0 | 7.8 | 0.00 | 0.00 | 0.00 | 67 | 1010.9 |
| 20260505024013 | 0 | 340 | 0.0 | 8.7 | 0.00 | 0.00 | 0.00 | 1011.1 | |
| 20260505023550 | 53 | 5 | 1.7 | 7.8 | 0.00 | 0.00 | 0.00 | 66 | 1010.9 |
| 20260505023507 | 0 | 5 | 0.9 | 8.7 | 0.00 | 0.00 | 0.00 | 1011.0 | |
| 20260505023042 | 53 | 327 | 0.0 | 6.1 | 0.00 | 0.00 | 0.00 | 66 | 1010.7 |
| 20260505023019 | 0 | 327 | 0.0 | 5.2 | 0.00 | 0.00 | 0.00 | 1010.9 | |
| 20260505022556 | 53 | 359 | 0.9 | 6.1 | 0.00 | 0.00 | 0.00 | 65 | 1010.6 |
| 20260505022508 | 0 | 333 | 0.9 | 9.6 | 0.00 | 0.00 | 0.00 | 1010.8 | |
| 20260505022049 | 53 | 3 | 0.9 | 9.6 | 0.00 | 0.00 | 0.00 | 63 | 1010.5 |
| 20260505022009 | 0 | 12 | 0.9 | 9.6 | 0.00 | 0.00 | 0.00 | 1010.7 | |
| 20260505021542 | 54 | 347 | 0.9 | 9.6 | 0.00 | 0.00 | 0.00 | 62 | 1010.5 |
| 20260505021523 | 0 | 336 | 0.0 | 8.7 | 0.00 | 0.00 | 0.00 | 1010.6 | |
| 20260505021058 | 54 | 327 | 1.7 | 7.8 | 0.00 | 0.00 | 0.00 | 60 | 1010.4 |
| 20260505021007 | 0 | 349 | 0.9 | 9.6 | 0.00 | 0.00 | 0.00 | 1010.5 | |
| 20260505020551 | 55 | 307 | 3.5 | 9.6 | 0.00 | 0.00 | 0.00 | 59 | 1010.4 |
| 20260505020506 | 0 | 325 | 1.7 | 9.6 | 0.00 | 0.00 | 0.00 | 1010.6 | |
| 20260505020044 | 55 | 330 | 1.7 | 9.6 | 0.00 | 0.00 | 0.00 | 59 | 1010.6 |
| 20260505020019 | 0 | 348 | 0.9 | 5.2 | 0.00 | 0.00 | 0.00 | 1010.7 | |
| 20260505015556 | 56 | 145 | 0.0 | 0.0 | 0.00 | 0.00 | 0.00 | 58 | 1010.4 |
| 20260505015512 | 0 | 145 | 0.0 | 0.0 | 0.00 | 0.00 | 0.00 | 1010.6 | |
| 20260505015049 | 56 | 145 | 0.0 | 0.0 | 0.00 | 0.00 | 0.00 | 59 | 1010.4 |
| 20260505015007 | 0 | 145 | 0.0 | 0.0 | 0.00 | 0.00 | 0.00 | 1010.4 | |
| 20260505014622 | 56 | 145 | 0.0 | 0.0 | 0.00 | 0.00 | 0.00 | 59 | 1010.3 |
| 20260505014516 | 0 | 145 | 0.0 | 0.0 | 0.00 | 0.00 | 0.00 | 1010.2 | |
| 20260505014052 | 56 | 145 | 0.0 | 0.0 | 0.00 | 0.00 | 0.00 | 56 | 1010.1 |
| 20260505014007 | 0 | 145 | 0.0 | 0.0 | 0.00 | 0.00 | 0.00 | 1010.0 | |
| 20260505013617 | 56 | 145 | 0.0 | 0.0 | 0.00 | 0.00 | 0.00 | 56 | 1009.9 |
| 20260505013507 | 0 | 145 | 0.0 | 0.0 | 0.00 | 0.00 | 0.00 | 1009.8 | |
| 20260505013048 | 56 | 145 | 0.0 | 0.0 | 0.00 | 0.00 | 0.00 | 56 | 1009.9 |
| 20260505013019 | 0 | 145 | 0.0 | 0.0 | 0.00 | 0.00 | 0.00 | 1009.8 | |
| 20260505012602 | 56 | 145 | 0.0 | 0.0 | 0.00 | 0.00 | 0.00 | 56 | 1010.0 |
| 20260505012514 | 0 | 145 | 0.0 | 0.0 | 0.00 | 0.00 | 0.00 | 1010.0 | |
| 20260505012055 | 56 | 145 | 0.0 | 0.0 | 0.00 | 0.00 | 0.00 | 56 | 1010.1 |
| 20260505012010 | 0 | 145 | 0.0 | 0.0 | 0.00 | 0.00 | 0.00 | 1010.0 | |
| 20260505011547 | 57 | 145 | 0.0 | 0.0 | 0.00 | 0.00 | 0.00 | 56 | 1010.0 |
| 20260505011526 | 0 | 145 | 0.0 | 0.0 | 0.00 | 0.00 | 0.00 | 1009.9 | |
| 20260505011100 | 57 | 145 | 0.0 | 0.0 | 0.00 | 0.00 | 0.00 | 55 | 1010.0 |
| 20260505011008 | 0 | 145 | 0.0 | 0.0 | 0.00 | 0.00 | 0.00 | 1009.8 | |
| 20260505010612 | 57 | 145 | 0.0 | 0.0 | 0.00 | 0.00 | 0.00 | 54 | 1010.0 |
| 20260505010507 | 0 | 145 | 0.0 | 0.0 | 0.00 | 0.00 | 0.00 | 1010.0 | |
| 20260505010016 | 0 | 145 | 0.0 | 0.0 | 0.00 | 0.00 | 0.00 | 1010.0 | |
| 20260505005554 | 57 | 144 | 0.0 | 0.0 | 0.00 | 0.00 | 0.00 | 55 | 1010.0 |
| 20260505005504 | 0 | 156 | 0.0 | 0.0 | 0.00 | 0.00 | 0.00 | 1010.0 | |
| 20260505005045 | 57 | 5 | 0.0 | 0.0 | 0.00 | 0.00 | 0.00 | 55 | 1010.0 |
| 20260505005007 | 0 | 5 | 0.0 | 0.0 | 0.00 | 0.00 | 0.00 | 1010.0 | |
| 20260505004559 | 58 | 5 | 0.0 | 0.0 | 0.00 | 0.00 | 0.00 | 54 | 1010.1 |
| 20260505004504 | 0 | 5 | 0.0 | 0.0 | 0.00 | 0.00 | 0.00 | 1010.2 | |
| 20260505004121 | 58 | 2 | 0.0 | 1.7 | 0.00 | 0.00 | 0.00 | 54 | 1010.2 |
| 20260505004007 | 0 | 2 | 0.0 | 3.5 | 0.00 | 0.00 | 0.00 | 1010.2 | |
| 20260505003554 | 59 | 1 | 0.0 | 3.5 | 0.00 | 0.00 | 0.00 | 51 | 1010.1 |
| 20260505003507 | 0 | 13 | 0.0 | 3.5 | 0.00 | 0.00 | 0.00 | 1010.1 | |
| 20260505003053 | 59 | 299 | 0.9 | 3.5 | 0.00 | 0.00 | 0.00 | 50 | 1010.2 |
| 20260505003019 | 0 | 296 | 0.0 | 3.5 | 0.00 | 0.00 | 0.00 | 1010.2 | |
| 20260505002553 | 60 | 266 | 0.0 | 4.3 | 0.00 | 0.00 | 0.00 | 48 | 1010.2 |
| 20260505002507 | 0 | 266 | 0.0 | 4.3 | 0.00 | 0.00 | 0.00 | 1010.2 | |
| 20260505002046 | 60 | 261 | 0.0 | 4.3 | 0.00 | 0.00 | 0.00 | 46 | 1010.3 |
| 20260505002003 | 0 | 261 | 0.0 | 4.3 | 0.00 | 0.00 | 0.00 | 1010.2 | |
| 20260505001556 | 60 | 261 | 0.9 | 2.6 | 0.00 | 0.00 | 0.00 | 45 | 1010.2 |
| 20260505001518 | 0 | 261 | 0.0 | 2.6 | 0.00 | 0.00 | 0.00 | 1010.1 | |
| 20260505001051 | 60 | 261 | 0.0 | 1.7 | 0.00 | 0.00 | 0.00 | 44 | 1010.1 |
| 20260505001006 | 0 | 261 | 0.0 | 1.7 | 0.00 | 0.00 | 0.00 | 1010.0 | |
| 20260505000544 | 60 | 251 | 0.0 | 1.7 | 0.00 | 0.00 | 0.00 | 45 | 1009.8 |
| 20260505000503 | 0 | 248 | 0.0 | 1.7 | 0.00 | 0.00 | 0.00 | 1009.8 | |
| 20260505000053 | 60 | 278 | 0.0 | 2.6 | 0.00 | 0.00 | 0.00 | 44 | 1009.7 |
| 20260505000028 | 0 | 278 | 0.0 | 7.0 | 0.00 | 0.00 | 0.00 | 1009.7 | |
| 20260504235544 | 61 | 330 | 0.9 | 7.0 | 0.00 | 0.00 | 0.00 | 42 | 1009.6 |
| 20260504235503 | 0 | 330 | 0.0 | 7.8 | 0.00 | 0.00 | 0.00 | 1009.6 | |
| 20260504235058 | 61 | 271 | 1.7 | 7.8 | 0.00 | 0.00 | 0.00 | 42 | 1009.3 |
| 20260504235004 | 0 | 281 | 1.7 | 8.7 | 0.00 | 0.00 | 0.00 | 1009.3 | |
| 20260504234551 | 61 | 301 | 1.7 | 7.8 | 0.00 | 0.00 | 0.00 | 41 | 1009.4 |
| 20260504234516 | 0 | 271 | 2.6 | 7.8 | 0.00 | 0.00 | 0.00 | 1009.3 | |
| 20260504234045 | 61 | 313 | 0.0 | 7.8 | 0.00 | 0.00 | 0.00 | 42 | 1009.1 |
| 20260504234004 | 0 | 313 | 0.0 | 7.8 | 0.00 | 0.00 | 0.00 | 1009.2 | |
| 20260504233558 | 61 | 309 | 1.7 | 7.8 | 0.00 | 0.00 | 0.00 | 41 | 1009.1 |
| 20260504233508 | 0 | 292 | 1.7 | 7.8 | 0.00 | 0.00 | 0.00 | 1009.2 | |
| 20260504233112 | 61 | 330 | 1.7 | 7.8 | 0.00 | 0.00 | 0.00 | 41 | 1009.0 |
| 20260504233014 | 0 | 294 | 0.9 | 7.8 | 0.00 | 0.00 | 0.00 | 1009.1 | |
| 20260504232544 | 61 | 336 | 0.9 | 8.7 | 0.00 | 0.00 | 0.00 | 40 | 1009.0 |
| 20260504232503 | 0 | 313 | 0.0 | 8.7 | 0.00 | 0.00 | 0.00 | 1009.1 | |
| 20260504232058 | 62 | 313 | 0.0 | 10.4 | 0.00 | 0.00 | 0.00 | 40 | 1009.0 |
| 20260504232007 | 0 | 313 | 0.9 | 10.4 | 0.00 | 0.00 | 0.00 | 1009.1 | |
| 20260504231550 | 62 | 299 | 2.6 | 10.4 | 0.00 | 0.00 | 0.00 | 40 | 1009.1 |
| 20260504231514 | 0 | 310 | 3.5 | 12.2 | 0.00 | 0.00 | 0.00 | 1009.1 | |
| 20260504231101 | 62 | 321 | 4.3 | 12.2 | 0.00 | 0.00 | 0.00 | 39 | 1009.0 |
| 20260504231003 | 0 | 360 | 3.5 | 12.2 | 0.00 | 0.00 | 0.00 | 1009.1 | |
| 20260504230554 | 62 | 327 | 4.3 | 15.6 | 0.00 | 0.00 | 0.00 | 39 | 1008.9 |
| 20260504230506 | 0 | 305 | 3.5 | 15.6 | 0.00 | 0.00 | 0.00 | 1009.0 | |
| 20260504230045 | 63 | 330 | 6.1 | 15.6 | 0.00 | 0.00 | 0.00 | 38 | 1008.9 |
| 20260504230016 | 0 | 359 | 6.1 | 15.6 | 0.00 | 0.00 | 0.00 | 1008.9 | |
| 20260504225559 | 63 | 350 | 6.1 | 13.9 | 0.00 | 0.00 | 0.00 | 38 | 1008.9 |
| 20260504225510 | 0 | 298 | 7.0 | 13.0 | 0.00 | 0.00 | 0.00 | 1009.0 | |
| 20260504225100 | 63 | 10 | 7.0 | 13.9 | 0.00 | 0.00 | 0.00 | 37 | 1008.9 |
| 20260504225006 | 0 | 334 | 6.1 | 13.0 | 0.00 | 0.00 | 0.00 | 1009.0 | |
| 20260504224622 | 63 | 331 | 4.3 | 11.3 | 0.00 | 0.00 | 0.00 | 38 | 1009.0 |
| 20260504224518 | 0 | 17 | 1.7 | 8.7 | 0.00 | 0.00 | 0.00 | 1009.1 | |
| 20260504224053 | 63 | 326 | 2.6 | 8.7 | 0.00 | 0.00 | 0.00 | 38 | 1009.0 |
| 20260504224006 | 0 | 323 | 2.6 | 8.7 | 0.00 | 0.00 | 0.00 | 1009.0 | |
| 20260504223556 | 62 | 357 | 5.2 | 8.7 | 0.00 | 0.00 | 0.00 | 37 | 1008.9 |
| 20260504223508 | 0 | 353 | 3.5 | 8.7 | 0.00 | 0.00 | 0.00 | 1009.0 | |
| 20260504223050 | 62 | 321 | 0.9 | 7.0 | 0.00 | 0.00 | 0.00 | 40 | 1008.9 |
| 20260504223006 | 0 | 307 | 0.9 | 7.8 | 0.00 | 0.00 | 0.00 | 1009.1 | |
| 20260504222543 | 62 | 306 | 0.9 | 8.7 | 0.00 | 0.00 | 0.00 | 39 | 1009.2 |
| 20260504222506 | 0 | 340 | 0.0 | 9.6 | 0.00 | 0.00 | 0.00 | 1009.3 | |
| 20260504222057 | 62 | 336 | 4.3 | 11.3 | 0.00 | 0.00 | 0.00 | 39 | 1009.1 |
| 20260504222007 | 0 | 305 | 3.5 | 10.4 | 0.00 | 0.00 | 0.00 | 1009.2 | |
| 20260504221608 | 62 | 347 | 3.5 | 11.3 | 0.00 | 0.00 | 0.00 | 38 | 1009.0 |
| 20260504221520 | 0 | 5 | 2.6 | 11.3 | 0.00 | 0.00 | 0.00 | 1009.1 | |
| 20260504221114 | 62 | 350 | 4.3 | 16.5 | 0.00 | 0.00 | 0.00 | 37 | 1008.8 |
| 20260504221006 | 0 | 350 | 4.3 | 16.5 | 0.00 | 0.00 | 0.00 | 1009.0 | |
| 20260504220545 | 63 | 330 | 8.7 | 16.5 | 0.00 | 0.00 | 0.00 | 36 | 1008.7 |
| 20260504220503 | 0 | 346 | 7.8 | 16.5 | 0.00 | 0.00 | 0.00 | 1008.9 | |
| 20260504220058 | 63 | 348 | 2.6 | 12.2 | 0.00 | 0.00 | 0.00 | 34 | 1008.5 |
| 20260504220020 | 0 | 339 | 1.7 | 11.3 | 0.00 | 0.00 | 0.00 | 1008.7 | |
| 20260504215549 | 63 | 338 | 6.1 | 13.0 | 0.00 | 0.00 | 0.00 | 33 | 1008.2 |
| 20260504215507 | 0 | 360 | 6.1 | 12.2 | 0.00 | 0.00 | 0.00 | 1008.4 | |
| 20260504215120 | 64 | 5 | 5.2 | 16.5 | 0.00 | 0.00 | 0.00 | 33 | 1008.1 |
| 20260504215006 | 0 | 17 | 5.2 | 17.4 | 0.00 | 0.00 | 0.00 | 1008.3 | |
| 20260504214550 | 65 | 348 | 4.3 | 19.1 | 0.00 | 0.00 | 0.00 | 32 | 1008.1 |
| 20260504214517 | 0 | 23 | 3.5 | 17.4 | 0.00 | 0.00 | 0.00 | 1008.2 | |
| 20260504214044 | 67 | 14 | 8.7 | 19.1 | 0.00 | 0.00 | 0.00 | 30 | 1007.9 |
| 20260504214003 | 0 | 347 | 8.7 | 17.4 | 0.00 | 0.00 | 0.00 | 1008.1 | |
| 20260504213555 | 69 | 343 | 8.7 | 12.2 | 0.00 | 0.00 | 0.00 | 28 | 1007.7 |
| 20260504213507 | 0 | 350 | 8.7 | 13.0 | 0.00 | 0.00 | 0.00 | 1007.9 | |
| 20260504213047 | 70 | 15 | 2.6 | 10.4 | 0.00 | 0.00 | 0.00 | 25 | 1007.3 |
| 20260504213041 | 0 | 22 | 0.9 | 10.4 | 0.00 | 0.00 | 0.00 | 1007.5 | |
| 20260504212600 | 70 | 21 | 1.7 | 5.2 | 0.00 | 0.00 | 0.00 | 26 | 1007.5 |
| 20260504212503 | 0 | 48 | 0.9 | 5.2 | 0.00 | 0.00 | 0.00 | 1007.7 | |
| 20260504212120 | 70 | 352 | 0.0 | 0.9 | 0.00 | 0.00 | 0.00 | 29 | 1007.5 |
| 20260504212009 | 0 | 82 | 0.0 | 0.9 | 0.00 | 0.00 | 0.00 | 1007.7 | |
| 20260504211550 | 70 | 68 | 0.0 | 0.0 | 0.00 | 0.00 | 0.00 | 30 | 1007.5 |
| 20260504211516 | 0 | 44 | 0.0 | 0.0 | 0.00 | 0.00 | 0.00 | 1007.8 | |
| 20260504211103 | 69 | 38 | 0.0 | 0.0 | 0.00 | 0.00 | 0.00 | 29 | 1007.7 |
| 20260504211003 | 0 | 38 | 0.0 | 0.0 | 0.00 | 0.00 | 0.00 | 1008.0 | |
| 20260504210616 | 69 | 37 | 0.0 | 0.0 | 0.00 | 0.00 | 0.00 | 31 | 1007.8 |
| 20260504210508 | 0 | 44 | 0.0 | 0.0 | 0.00 | 0.00 | 0.00 | 1008.0 | |
| 20260504210047 | 69 | 1 | 0.0 | 0.0 | 0.00 | 0.00 | 0.00 | 31 | 1007.8 |
| 20260504210014 | 0 | 344 | 0.0 | 0.0 | 0.00 | 0.00 | 0.00 | 1008.0 | |
| 20260504205552 | 69 | 343 | 0.0 | 0.0 | 0.00 | 0.00 | 0.00 | 30 | 1007.9 |
| 20260504205506 | 0 | 343 | 0.0 | 0.0 | 0.00 | 0.00 | 0.00 | 1008.1 | |
| 20260504205104 | 68 | 101 | 0.0 | 6.1 | 0.00 | 0.00 | 0.00 | 35 | 1007.9 |
| 20260504205006 | 0 | 101 | 0.0 | 6.1 | 0.00 | 0.00 | 0.00 | 1008.1 | |
| 20260504204600 | 66 | 106 | 1.7 | 6.1 | 0.00 | 0.00 | 0.00 | 39 | 1008.0 |
| 20260504204512 | 0 | 106 | 0.9 | 6.1 | 0.00 | 0.00 | 0.00 | 1008.2 | |
| 20260504204052 | 64 | 96 | 0.0 | 0.0 | 0.00 | 0.00 | 0.00 | 39 | 1008.2 |
| 20260504204006 | 0 | 247 | 0.0 | 0.0 | 0.00 | 0.00 | 0.00 | 1008.4 | |
| 20260504203544 | 63 | 247 | 0.0 | 3.5 | 0.00 | 0.00 | 0.00 | 38 | 1008.5 |
| 20260504203511 | 0 | 247 | 0.0 | 3.5 | 0.00 | 0.00 | 0.00 | 1008.6 | |
| 20260504203057 | 62 | 247 | 0.0 | 3.5 | 0.00 | 0.00 | 0.00 | 41 | 1008.7 |
| 20260504203010 | 0 | 247 | 0.0 | 6.1 | 0.00 | 0.00 | 0.00 | 1008.8 | |
| 20260504202552 | 62 | 251 | 0.0 | 7.0 | 0.00 | 0.00 | 0.00 | 43 | 1008.7 |
| 20260504202509 | 0 | 248 | 0.0 | 7.0 | 0.00 | 0.00 | 0.00 | 1008.8 | |
| 20260504202044 | 61 | 323 | 2.6 | 7.0 | 0.00 | 0.00 | 0.00 | 39 | 1008.7 |
| 20260504202006 | 0 | 354 | 1.7 | 7.0 | 0.00 | 0.00 | 0.00 | 1008.9 | |
| 20260504201557 | 61 | 6 | 3.5 | 7.0 | 0.00 | 0.00 | 0.00 | 42 | 1008.9 |
| 20260504201523 | 0 | 5 | 3.5 | 7.0 | 0.00 | 0.00 | 0.00 | 1009.1 | |
| 20260504201049 | 60 | 360 | 2.6 | 7.0 | 0.00 | 0.00 | 0.00 | 43 | 1009.1 |
| 20260504201008 | 0 | 303 | 2.6 | 6.1 | 0.00 | 0.00 | 0.00 | 1009.3 | |
| 20260504200544 | 59 | 352 | 2.6 | 5.2 | 0.00 | 0.00 | 0.00 | 46 | 1009.2 |
| 20260504200505 | 0 | 353 | 1.7 | 7.8 | 0.00 | 0.00 | 0.00 | 1009.3 | |
| 20260504200056 | 58 | 45 | 3.5 | 10.4 | 0.00 | 0.00 | 0.00 | 49 | 1009.1 |
| 20260504200020 | 0 | 26 | 3.5 | 11.3 | 0.00 | 0.00 | 0.00 | 1009.1 | |
| 20260504195610 | 58 | 16 | 6.1 | 10.4 | 0.00 | 0.00 | 0.00 | 52 | 1008.9 |
| 20260504195505 | 0 | 41 | 6.1 | 11.3 | 0.00 | 0.00 | 0.00 | 1009.0 | |
| 20260504195042 | 57 | 76 | 5.2 | 10.4 | 0.00 | 0.00 | 0.00 | 59 | 1008.8 |
| 20260504195003 | 0 | 54 | 5.2 | 11.3 | 0.00 | 0.00 | 0.00 | 1009.0 | |
| 20260504194554 | 57 | 82 | 5.2 | 7.8 | 0.00 | 0.00 | 0.00 | 62 | 1009.1 |
| 20260504194519 | 0 | 72 | 5.2 | 8.7 | 0.00 | 0.00 | 0.00 | 1009.3 | |
| 20260504194046 | 56 | 66 | 2.6 | 5.2 | 0.00 | 0.00 | 0.00 | 65 | 1009.3 |
| 20260504194006 | 0 | 66 | 2.6 | 7.8 | 0.00 | 0.00 | 0.00 | 1009.4 | |
| 20260504193559 | 56 | 74 | 4.3 | 7.0 | 0.00 | 0.00 | 0.00 | 65 | 1009.6 |
| 20260504193508 | 0 | 76 | 3.5 | 7.8 | 0.00 | 0.00 | 0.00 | 1009.5 | |
| 20260504193119 | 56 | 196 | 4.3 | 8.7 | 0.00 | 0.00 | 0.00 | 65 | 1009.6 |
| 20260504193019 | 0 | 199 | 4.3 | 9.6 | 0.00 | 0.00 | 0.00 | 1009.7 | |
| 20260504192552 | 56 | 190 | 4.3 | 14.8 | 0.00 | 0.00 | 0.00 | 65 | 1009.6 |
| 20260504192506 | 0 | 150 | 4.3 | 15.6 | 0.00 | 0.00 | 0.00 | 1009.6 | |
| 20260504192053 | 57 | 196 | 8.7 | 17.4 | 0.00 | 0.00 | 0.00 | 59 | 1009.4 |
| 20260504192009 | 0 | 196 | 9.6 | 19.1 | 0.00 | 0.00 | 0.00 | 1009.4 | |
| 20260504191554 | 59 | 198 | 7.8 | 25.2 | 0.00 | 0.00 | 0.00 | 49 | 1009.0 |
| 20260504191518 | 0 | 157 | 8.7 | 33.9 | 0.00 | 0.00 | 0.00 | 1009.0 | |
| 20260504191045 | 62 | 251 | 13.0 | 32.2 | 0.00 | 0.00 | 0.00 | 36 | 1008.6 |
| 20260504191012 | 0 | 198 | 13.0 | 33.9 | 0.00 | 0.00 | 0.00 | 1008.6 | |
| 20260504190558 | 65 | 189 | 14.8 | 32.2 | 0.00 | 0.00 | 0.00 | 36 | 1008.4 |
| 20260504190508 | 0 | 140 | 11.3 | 22.6 | 0.00 | 0.00 | 0.00 | 1008.6 | |
| 20260504190048 | 66 | 146 | 9.6 | 18.2 | 0.00 | 0.00 | 0.00 | 28 | 1008.5 |
| 20260504190016 | 0 | 101 | 9.6 | 19.1 | 0.00 | 0.00 | 0.00 | 1008.6 | |
| 20260504185557 | 67 | 121 | 5.2 | 18.2 | 0.00 | 0.00 | 0.00 | 25 | 1008.2 |
| 20260504185512 | 0 | 123 | 5.2 | 19.1 | 0.00 | 0.00 | 0.00 | 1008.3 | |
| 20260504185051 | 68 | 157 | 6.1 | 19.1 | 0.00 | 0.00 | 0.00 | 23 | 1008.1 |
| 20260504185007 | 0 | 144 | 6.1 | 20.0 | 0.00 | 0.00 | 0.00 | 1008.2 | |
| 20260504184543 | 68 | 70 | 7.0 | 19.1 | 0.00 | 0.00 | 0.00 | 22 | 1008.0 |
| 20260504184515 | 0 | 104 | 7.0 | 20.0 | 0.00 | 0.00 | 0.00 | 1008.3 | |
| 20260504184055 | 69 | 127 | 5.2 | 9.6 | 0.00 | 0.00 | 0.00 | 21 | 1008.0 |
| 20260504184007 | 0 | 130 | 4.3 | 12.2 | 0.00 | 0.00 | 0.00 | 1008.3 | |
| 20260504183608 | 70 | 22 | 0.0 | 9.6 | 0.00 | 0.00 | 0.00 | 21 | 1008.0 |
| 20260504183508 | 0 | 19 | 0.0 | 10.4 | 0.00 | 0.00 | 0.00 | 1008.2 | |
| 20260504183100 | 70 | 42 | 1.7 | 9.6 | 0.00 | 0.00 | 0.00 | 21 | 1008.0 |
| 20260504183023 | 0 | 38 | 1.7 | 10.4 | 0.00 | 0.00 | 0.00 | 1008.1 | |
| 20260504182614 | 70 | 26 | 0.0 | 4.3 | 0.00 | 0.00 | 0.00 | 20 | 1007.9 |
| 20260504182510 | 0 | 22 | 0.0 | 7.0 | 0.00 | 0.00 | 0.00 | 1008.0 | |
| 20260504182044 | 71 | 45 | 0.0 | 7.8 | 0.00 | 0.00 | 0.00 | 19 | 1007.9 |
| 20260504182006 | 0 | 38 | 0.0 | 7.8 | 0.00 | 0.00 | 0.00 | 1008.0 | |
| 20260504181557 | 71 | 1 | 3.5 | 8.7 | 0.00 | 0.00 | 0.00 | 20 | 1007.9 |
| 20260504181520 | 0 | 2 | 2.6 | 10.4 | 0.00 | 0.00 | 0.00 | 1008.0 | |
| 20260504181048 | 72 | 12 | 0.9 | 10.4 | 0.00 | 0.00 | 0.00 | 19 | 1007.9 |
| 20260504181008 | 0 | 356 | 0.9 | 10.4 | 0.00 | 0.00 | 0.00 | 1008.0 | |
| 20260504180601 | 73 | 340 | 2.6 | 10.4 | 0.00 | 0.00 | 0.00 | 19 | 1007.9 |
| 20260504180504 | 0 | 30 | 0.9 | 12.2 | 0.00 | 0.00 | 0.00 | 1008.1 | |
| 20260504180053 | 74 | 324 | 4.3 | 12.2 | 0.00 | 0.00 | 0.00 | 19 | 1008.0 |
| 20260504180020 | 0 | 327 | 4.3 | 12.2 | 0.00 | 0.00 | 0.00 | 1008.1 | |
| 20260504175607 | 76 | 13 | 3.5 | 12.2 | 0.00 | 0.00 | 0.00 | 19 | 1008.0 |
| 20260504175508 | 0 | 30 | 3.5 | 12.2 | 0.00 | 0.00 | 0.00 | 1008.1 | |
| 20260504175100 | 76 | 24 | 4.3 | 9.6 | 0.00 | 0.00 | 0.00 | 19 | 1008.0 |
| 20260504175011 | 0 | 7 | 3.5 | 11.3 | 0.00 | 0.00 | 0.00 | 1008.2 | |
| 20260504174553 | 76 | 38 | 4.3 | 12.2 | 0.00 | 0.00 | 0.00 | 19 | 1008.1 |
| 20260504174519 | 0 | 18 | 3.5 | 11.3 | 0.00 | 0.00 | 0.00 | 1008.2 | |
| 20260504174045 | 76 | 340 | 2.6 | 12.2 | 0.00 | 0.00 | 0.00 | 19 | 1008.3 |
| 20260504174004 | 0 | 346 | 0.9 | 11.3 | 0.00 | 0.00 | 0.00 | 1008.3 | |
| 20260504173558 | 76 | 28 | 4.3 | 7.8 | 0.00 | 0.00 | 0.00 | 19 | 1008.3 |
| 20260504173512 | 0 | 313 | 3.5 | 7.8 | 0.00 | 0.00 | 0.00 | 1008.4 | |
| 20260504173050 | 76 | 357 | 1.7 | 6.1 | 0.00 | 0.00 | 0.00 | 20 | 1008.5 |
| 20260504173031 | 0 | 15 | 0.9 | 6.1 | 0.00 | 0.00 | 0.00 | 1008.6 | |
| 20260504172552 | 76 | 354 | 1.7 | 6.1 | 0.00 | 0.00 | 0.00 | 19 | 1008.5 |
| 20260504172507 | 0 | 1 | 1.7 | 6.1 | 0.00 | 0.00 | 0.00 | 1008.6 | |
| 20260504172054 | 76 | 23 | 2.6 | 5.2 | 0.00 | 0.00 | 0.00 | 20 | 1008.7 |
| 20260504172007 | 0 | 3 | 1.7 | 6.1 | 0.00 | 0.00 | 0.00 | 1008.7 | |
| 20260504171545 | 76 | 13 | 1.7 | 6.1 | 0.00 | 0.00 | 0.00 | 20 | 1008.7 |
| 20260504171522 | 0 | 7 | 0.9 | 5.2 | 0.00 | 0.00 | 0.00 | 1008.7 | |
| 20260504171056 | 75 | 256 | 0.0 | 2.6 | 0.00 | 0.00 | 0.00 | 20 | 1008.7 |
| 20260504171009 | 0 | 29 | 0.0 | 2.6 | 0.00 | 0.00 | 0.00 | 1008.8 | |
| 20260504170549 | 75 | 322 | 0.0 | 0.0 | 0.00 | 0.00 | 0.00 | 21 | 1008.8 |
| 20260504170508 | 0 | 344 | 0.0 | 0.0 | 0.00 | 0.00 | 0.00 | 1008.8 | |
| 20260504151048 | 62 | 289 | 0.0 | 3.5 | 0.00 | 0.00 | 0.00 | 30 | 1009.9 |
| 20260504150739 | 0 | 313 | 0.0 | 7.8 | 0.00 | 0.00 | 0.00 | 1009.8 | |
| 20260504150602 | 62 | 270 | 0.9 | 3.5 | 0.00 | 0.00 | 0.00 | 31 | 1009.9 |
| 20260504141055 | 56 | 273 | 0.9 | 7.0 | 0.00 | 0.00 | 0.00 | 34 | 1010.0 |
| 20260504140545 | 56 | 251 | 0.9 | 7.0 | 0.00 | 0.00 | 0.00 | 34 | 1010.0 |
| 20260504140516 | 0 | 213 | 0.0 | 0.0 | 0.00 | 0.00 | 0.00 | 1009.8 | |
| 20260504130547 | 48 | 243 | 0.0 | 4.3 | 0.00 | 0.00 | 0.00 | 46 | 1009.8 |
| 20260504130510 | 0 | 213 | 0.0 | 0.0 | 0.00 | 0.00 | 0.00 | 1009.6 | |
| 20260504130119 | 47 | 228 | 0.0 | 4.3 | 0.00 | 0.00 | 0.00 | 50 | 1009.8 |
| 20260504110552 | 44 | 213 | 0.0 | 0.0 | 0.00 | 0.00 | 0.00 | 53 | 1009.7 |
| 20260504110504 | 0 | 213 | 0.0 | 0.0 | 0.00 | 0.00 | 0.00 | 1009.8 | |
| 20260504100548 | 42 | 325 | 0.0 | 0.0 | 0.00 | 0.00 | 0.00 | 57 | 1010.1 |
| 20260504100508 | 0 | 325 | 0.0 | 0.0 | 0.00 | 0.00 | 0.00 | 1010.1 |